sensor_id;sensor_type;location;lat;lon;timestamp;P1;durP1;ratioP1;P2;durP2;ratioP2
43841;SDS011;29495;49.970;20.842;2022-09-17T00:00:58;2.85;;;2.28;;
43841;SDS011;29495;49.970;20.842;2022-09-17T00:03:24;2.97;;;2.00;;
43841;SDS011;29495;49.970;20.842;2022-09-17T00:05:57;3.25;;;2.08;;
43841;SDS011;29495;49.970;20.842;2022-09-17T00:08:31;2.28;;;1.73;;
43841;SDS011;29495;49.970;20.842;2022-09-17T00:11:04;3.42;;;2.60;;
43841;SDS011;29495;49.970;20.842;2022-09-17T00:13:36;2.80;;;1.95;;
43841;SDS011;29495;49.970;20.842;2022-09-17T00:16:03;3.15;;;2.20;;
43841;SDS011;29495;49.970;20.842;2022-09-17T00:18:29;2.05;;;1.77;;
43841;SDS011;29495;49.970;20.842;2022-09-17T00:20:55;3.92;;;2.33;;
43841;SDS011;29495;49.970;20.842;2022-09-17T00:23:21;3.08;;;2.17;;
43841;SDS011;29495;49.970;20.842;2022-09-17T00:25:47;3.97;;;2.30;;
43841;SDS011;29495;49.970;20.842;2022-09-17T00:28:13;2.78;;;1.90;;
43841;SDS011;29495;49.970;20.842;2022-09-17T00:30:40;2.50;;;1.98;;
43841;SDS011;29495;49.970;20.842;2022-09-17T00:33:11;2.78;;;1.73;;
43841;SDS011;29495;49.970;20.842;2022-09-17T00:35:41;2.45;;;1.98;;
43841;SDS011;29495;49.970;20.842;2022-09-17T00:38:08;2.63;;;1.92;;
43841;SDS011;29495;49.970;20.842;2022-09-17T00:40:35;2.10;;;1.90;;
43841;SDS011;29495;49.970;20.842;2022-09-17T00:43:03;3.00;;;1.95;;
43841;SDS011;29495;49.970;20.842;2022-09-17T00:45:29;2.25;;;1.77;;
43841;SDS011;29495;49.970;20.842;2022-09-17T00:47:57;2.28;;;1.58;;
43841;SDS011;29495;49.970;20.842;2022-09-17T00:55:35;2.42;;;1.80;;
43841;SDS011;29495;49.970;20.842;2022-09-17T00:58:05;2.33;;;1.80;;
43841;SDS011;29495;49.970;20.842;2022-09-17T01:00:33;2.72;;;1.70;;
43841;SDS011;29495;49.970;20.842;2022-09-17T01:02:59;2.45;;;1.80;;
43841;SDS011;29495;49.970;20.842;2022-09-17T01:16:40;2.20;;;2.00;;
43841;SDS011;29495;49.970;20.842;2022-09-17T01:24:49;1.92;;;1.60;;
43841;SDS011;29495;49.970;20.842;2022-09-17T01:47:30;2.35;;;1.60;;
43841;SDS011;29495;49.970;20.842;2022-09-17T01:50:06;1.90;;;1.45;;
43841;SDS011;29495;49.970;20.842;2022-09-17T01:52:36;2.30;;;1.88;;
43841;SDS011;29495;49.970;20.842;2022-09-17T01:55:10;2.25;;;1.80;;
43841;SDS011;29495;49.970;20.842;2022-09-17T01:57:44;2.70;;;1.85;;
43841;SDS011;29495;49.970;20.842;2022-09-17T02:00:15;6.60;;;2.75;;
43841;SDS011;29495;49.970;20.842;2022-09-17T02:05:34;3.05;;;1.70;;
43841;SDS011;29495;49.970;20.842;2022-09-17T02:08:19;1.70;;;1.60;;
43841;SDS011;29495;49.970;20.842;2022-09-17T02:11:07;1.90;;;1.50;;
43841;SDS011;29495;49.970;20.842;2022-09-17T02:16:24;2.25;;;1.77;;
43841;SDS011;29495;49.970;20.842;2022-09-17T02:18:59;1.90;;;1.75;;
43841;SDS011;29495;49.970;20.842;2022-09-17T02:29:32;3.03;;;1.88;;
43841;SDS011;29495;49.970;20.842;2022-09-17T02:32:03;2.88;;;2.00;;
43841;SDS011;29495;49.970;20.842;2022-09-17T02:34:30;2.25;;;1.88;;
43841;SDS011;29495;49.970;20.842;2022-09-17T02:36:56;2.03;;;1.83;;
43841;SDS011;29495;49.970;20.842;2022-09-17T02:39:24;1.98;;;1.65;;
43841;SDS011;29495;49.970;20.842;2022-09-17T02:41:55;2.53;;;1.95;;
43841;SDS011;29495;49.970;20.842;2022-09-17T02:44:51;2.22;;;1.90;;
43841;SDS011;29495;49.970;20.842;2022-09-17T02:50:54;2.90;;;1.35;;
43841;SDS011;29495;49.970;20.842;2022-09-17T03:01:32;2.25;;;1.70;;
43841;SDS011;29495;49.970;20.842;2022-09-17T03:04:03;2.67;;;1.77;;
43841;SDS011;29495;49.970;20.842;2022-09-17T03:06:32;2.00;;;1.80;;
43841;SDS011;29495;49.970;20.842;2022-09-17T03:08:58;2.28;;;1.75;;
43841;SDS011;29495;49.970;20.842;2022-09-17T03:11:24;2.80;;;2.10;;
43841;SDS011;29495;49.970;20.842;2022-09-17T03:13:51;2.25;;;2.05;;
43841;SDS011;29495;49.970;20.842;2022-09-17T03:16:17;2.30;;;1.90;;
43841;SDS011;29495;49.970;20.842;2022-09-17T03:18:43;2.20;;;2.00;;
43841;SDS011;29495;49.970;20.842;2022-09-17T03:21:09;2.22;;;1.80;;
43841;SDS011;29495;49.970;20.842;2022-09-17T03:23:36;1.65;;;1.52;;
43841;SDS011;29495;49.970;20.842;2022-09-17T03:26:03;1.60;;;1.50;;
43841;SDS011;29495;49.970;20.842;2022-09-17T03:28:29;2.50;;;2.03;;
43841;SDS011;29495;49.970;20.842;2022-09-17T03:30:55;2.00;;;1.88;;
43841;SDS011;29495;49.970;20.842;2022-09-17T03:33:21;1.55;;;1.45;;
43841;SDS011;29495;49.970;20.842;2022-09-17T03:35:47;2.00;;;1.52;;
43841;SDS011;29495;49.970;20.842;2022-09-17T03:38:14;1.60;;;1.40;;
43841;SDS011;29495;49.970;20.842;2022-09-17T03:40:40;2.10;;;1.90;;
43841;SDS011;29495;49.970;20.842;2022-09-17T03:43:06;3.55;;;2.08;;
43841;SDS011;29495;49.970;20.842;2022-09-17T03:45:33;3.28;;;1.90;;
43841;SDS011;29495;49.970;20.842;2022-09-17T03:47:59;3.35;;;2.40;;
43841;SDS011;29495;49.970;20.842;2022-09-17T03:50:25;2.10;;;1.90;;
43841;SDS011;29495;49.970;20.842;2022-09-17T03:52:51;2.63;;;1.92;;
43841;SDS011;29495;49.970;20.842;2022-09-17T03:55:17;2.95;;;1.83;;
43841;SDS011;29495;49.970;20.842;2022-09-17T03:57:43;3.03;;;2.28;;
43841;SDS011;29495;49.970;20.842;2022-09-17T04:00:09;2.60;;;2.05;;
43841;SDS011;29495;49.970;20.842;2022-09-17T04:02:39;5.10;;;2.78;;
43841;SDS011;29495;49.970;20.842;2022-09-17T04:05:05;4.38;;;2.53;;
43841;SDS011;29495;49.970;20.842;2022-09-17T04:07:32;3.72;;;2.33;;
43841;SDS011;29495;49.970;20.842;2022-09-17T04:09:58;3.70;;;2.28;;
43841;SDS011;29495;49.970;20.842;2022-09-17T04:12:24;3.53;;;2.10;;
43841;SDS011;29495;49.970;20.842;2022-09-17T04:14:50;3.75;;;2.30;;
43841;SDS011;29495;49.970;20.842;2022-09-17T04:17:16;2.45;;;1.80;;
43841;SDS011;29495;49.970;20.842;2022-09-17T04:19:43;2.42;;;1.95;;
43841;SDS011;29495;49.970;20.842;2022-09-17T04:22:09;3.25;;;1.98;;
43841;SDS011;29495;49.970;20.842;2022-09-17T04:24:35;2.40;;;2.08;;
43841;SDS011;29495;49.970;20.842;2022-09-17T04:27:01;3.33;;;1.70;;
43841;SDS011;29495;49.970;20.842;2022-09-17T04:29:27;3.53;;;2.33;;
43841;SDS011;29495;49.970;20.842;2022-09-17T04:31:53;3.70;;;2.53;;
43841;SDS011;29495;49.970;20.842;2022-09-17T04:34:19;3.03;;;2.35;;
43841;SDS011;29495;49.970;20.842;2022-09-17T04:36:45;3.78;;;2.30;;
43841;SDS011;29495;49.970;20.842;2022-09-17T04:39:11;2.47;;;2.28;;
43841;SDS011;29495;49.970;20.842;2022-09-17T04:41:37;2.25;;;1.98;;
43841;SDS011;29495;49.970;20.842;2022-09-17T04:44:03;2.38;;;2.08;;
43841;SDS011;29495;49.970;20.842;2022-09-17T04:46:29;2.30;;;2.10;;
43841;SDS011;29495;49.970;20.842;2022-09-17T04:48:55;2.60;;;1.98;;
43841;SDS011;29495;49.970;20.842;2022-09-17T04:51:21;4.47;;;2.70;;
43841;SDS011;29495;49.970;20.842;2022-09-17T04:53:47;3.22;;;2.47;;
43841;SDS011;29495;49.970;20.842;2022-09-17T04:56:13;3.50;;;2.75;;
43841;SDS011;29495;49.970;20.842;2022-09-17T04:58:39;3.53;;;2.50;;
43841;SDS011;29495;49.970;20.842;2022-09-17T05:01:05;2.83;;;2.22;;
43841;SDS011;29495;49.970;20.842;2022-09-17T05:03:31;2.85;;;2.17;;
43841;SDS011;29495;49.970;20.842;2022-09-17T05:05:57;4.93;;;2.67;;
43841;SDS011;29495;49.970;20.842;2022-09-17T05:08:23;3.50;;;2.38;;
43841;SDS011;29495;49.970;20.842;2022-09-17T05:10:50;2.63;;;2.10;;
43841;SDS011;29495;49.970;20.842;2022-09-17T05:13:16;5.22;;;2.60;;
43841;SDS011;29495;49.970;20.842;2022-09-17T05:15:43;4.53;;;2.55;;
43841;SDS011;29495;49.970;20.842;2022-09-17T05:18:09;3.47;;;2.40;;
43841;SDS011;29495;49.970;20.842;2022-09-17T05:20:35;9.98;;;3.33;;
43841;SDS011;29495;49.970;20.842;2022-09-17T05:23:01;4.45;;;2.95;;
43841;SDS011;29495;49.970;20.842;2022-09-17T05:25:27;6.63;;;3.10;;
43841;SDS011;29495;49.970;20.842;2022-09-17T05:27:53;4.53;;;2.70;;
43841;SDS011;29495;49.970;20.842;2022-09-17T05:30:19;4.28;;;2.83;;
43841;SDS011;29495;49.970;20.842;2022-09-17T05:32:45;3.80;;;2.17;;
43841;SDS011;29495;49.970;20.842;2022-09-17T05:35:11;2.92;;;2.00;;
43841;SDS011;29495;49.970;20.842;2022-09-17T05:37:38;3.20;;;2.33;;
43841;SDS011;29495;49.970;20.842;2022-09-17T05:40:04;4.43;;;2.65;;
43841;SDS011;29495;49.970;20.842;2022-09-17T05:42:32;3.60;;;2.17;;
43841;SDS011;29495;49.970;20.842;2022-09-17T05:44:58;5.72;;;2.47;;
43841;SDS011;29495;49.970;20.842;2022-09-17T05:47:24;4.47;;;2.00;;
43841;SDS011;29495;49.970;20.842;2022-09-17T05:49:50;7.10;;;3.85;;
43841;SDS011;29495;49.970;20.842;2022-09-17T05:52:16;5.18;;;3.20;;
43841;SDS011;29495;49.970;20.842;2022-09-17T05:54:43;6.78;;;3.55;;
43841;SDS011;29495;49.970;20.842;2022-09-17T05:57:09;4.22;;;3.00;;
43841;SDS011;29495;49.970;20.842;2022-09-17T05:59:35;2.65;;;2.20;;
43841;SDS011;29495;49.970;20.842;2022-09-17T06:02:01;3.45;;;1.85;;
43841;SDS011;29495;49.970;20.842;2022-09-17T06:04:27;1.70;;;1.60;;
43841;SDS011;29495;49.970;20.842;2022-09-17T06:06:53;2.75;;;1.80;;
43841;SDS011;29495;49.970;20.842;2022-09-17T06:09:19;5.07;;;1.67;;
43841;SDS011;29495;49.970;20.842;2022-09-17T06:11:45;2.05;;;1.73;;
43841;SDS011;29495;49.970;20.842;2022-09-17T06:14:11;2.60;;;1.60;;
43841;SDS011;29495;49.970;20.842;2022-09-17T06:16:37;2.28;;;1.50;;
43841;SDS011;29495;49.970;20.842;2022-09-17T06:19:03;2.35;;;1.23;;
43841;SDS011;29495;49.970;20.842;2022-09-17T06:21:29;1.70;;;1.02;;
43841;SDS011;29495;49.970;20.842;2022-09-17T06:23:56;1.90;;;1.27;;
43841;SDS011;29495;49.970;20.842;2022-09-17T06:26:22;1.40;;;1.25;;
43841;SDS011;29495;49.970;20.842;2022-09-17T06:28:48;1.60;;;0.98;;
43841;SDS011;29495;49.970;20.842;2022-09-17T06:31:14;1.67;;;0.93;;
43841;SDS011;29495;49.970;20.842;2022-09-17T06:33:40;2.67;;;1.20;;
43841;SDS011;29495;49.970;20.842;2022-09-17T06:36:09;3.15;;;1.00;;
43841;SDS011;29495;49.970;20.842;2022-09-17T06:38:36;2.80;;;1.30;;
43841;SDS011;29495;49.970;20.842;2022-09-17T06:41:03;1.88;;;1.10;;
43841;SDS011;29495;49.970;20.842;2022-09-17T06:43:29;1.52;;;1.10;;
43841;SDS011;29495;49.970;20.842;2022-09-17T06:45:56;3.15;;;1.40;;
43841;SDS011;29495;49.970;20.842;2022-09-17T06:48:24;1.10;;;0.60;;
43841;SDS011;29495;49.970;20.842;2022-09-17T06:50:51;2.30;;;1.15;;
43841;SDS011;29495;49.970;20.842;2022-09-17T06:53:21;2.38;;;1.10;;
43841;SDS011;29495;49.970;20.842;2022-09-17T06:55:48;1.08;;;0.75;;
43841;SDS011;29495;49.970;20.842;2022-09-17T06:58:15;1.70;;;0.77;;
43841;SDS011;29495;49.970;20.842;2022-09-17T07:00:41;1.05;;;0.95;;
43841;SDS011;29495;49.970;20.842;2022-09-17T07:03:08;0.88;;;0.70;;
43841;SDS011;29495;49.970;20.842;2022-09-17T07:05:34;0.70;;;0.70;;
43841;SDS011;29495;49.970;20.842;2022-09-17T07:08:01;0.88;;;0.70;;
43841;SDS011;29495;49.970;20.842;2022-09-17T07:10:27;0.77;;;0.68;;
43841;SDS011;29495;49.970;20.842;2022-09-17T07:12:54;1.15;;;0.80;;
43841;SDS011;29495;49.970;20.842;2022-09-17T07:15:20;0.88;;;0.70;;
43841;SDS011;29495;49.970;20.842;2022-09-17T07:17:46;0.75;;;0.70;;
43841;SDS011;29495;49.970;20.842;2022-09-17T07:20:12;1.65;;;1.02;;
43841;SDS011;29495;49.970;20.842;2022-09-17T07:22:38;0.70;;;0.50;;
43841;SDS011;29495;49.970;20.842;2022-09-17T07:25:05;1.05;;;0.90;;
43841;SDS011;29495;49.970;20.842;2022-09-17T07:27:32;0.95;;;0.73;;
43841;SDS011;29495;49.970;20.842;2022-09-17T07:29:58;2.70;;;1.10;;
43841;SDS011;29495;49.970;20.842;2022-09-17T07:32:24;2.25;;;0.88;;
43841;SDS011;29495;49.970;20.842;2022-09-17T07:34:50;2.50;;;1.02;;
43841;SDS011;29495;49.970;20.842;2022-09-17T07:37:16;2.65;;;0.65;;
43841;SDS011;29495;49.970;20.842;2022-09-17T07:39:43;0.73;;;0.68;;
43841;SDS011;29495;49.970;20.842;2022-09-17T07:42:09;3.13;;;0.80;;
43841;SDS011;29495;49.970;20.842;2022-09-17T07:44:36;1.98;;;0.88;;
43841;SDS011;29495;49.970;20.842;2022-09-17T07:47:02;2.40;;;1.15;;
43841;SDS011;29495;49.970;20.842;2022-09-17T07:49:29;3.80;;;1.40;;
43841;SDS011;29495;49.970;20.842;2022-09-17T07:51:55;1.65;;;0.90;;
43841;SDS011;29495;49.970;20.842;2022-09-17T07:54:21;1.58;;;0.80;;
43841;SDS011;29495;49.970;20.842;2022-09-17T07:56:48;1.40;;;0.90;;
43841;SDS011;29495;49.970;20.842;2022-09-17T07:59:14;2.92;;;1.20;;
43841;SDS011;29495;49.970;20.842;2022-09-17T08:01:40;1.45;;;1.08;;
43841;SDS011;29495;49.970;20.842;2022-09-17T08:04:06;1.20;;;0.95;;
43841;SDS011;29495;49.970;20.842;2022-09-17T08:06:35;1.13;;;1.00;;
43841;SDS011;29495;49.970;20.842;2022-09-17T08:09:02;0.60;;;0.60;;
43841;SDS011;29495;49.970;20.842;2022-09-17T08:11:29;2.10;;;0.90;;
43841;SDS011;29495;49.970;20.842;2022-09-17T08:13:55;1.20;;;1.08;;
43841;SDS011;29495;49.970;20.842;2022-09-17T08:16:21;2.67;;;1.05;;
43841;SDS011;29495;49.970;20.842;2022-09-17T08:18:52;0.68;;;0.60;;
43841;SDS011;29495;49.970;20.842;2022-09-17T08:21:20;1.70;;;0.98;;
43841;SDS011;29495;49.970;20.842;2022-09-17T08:23:47;1.30;;;0.73;;
43841;SDS011;29495;49.970;20.842;2022-09-17T08:26:17;1.58;;;0.77;;
43841;SDS011;29495;49.970;20.842;2022-09-17T08:28:47;0.70;;;0.70;;
43841;SDS011;29495;49.970;20.842;2022-09-17T08:31:15;0.97;;;0.70;;
43841;SDS011;29495;49.970;20.842;2022-09-17T08:33:43;1.55;;;0.80;;
43841;SDS011;29495;49.970;20.842;2022-09-17T08:36:10;1.63;;;1.02;;
43841;SDS011;29495;49.970;20.842;2022-09-17T08:38:37;1.75;;;1.30;;
43841;SDS011;29495;49.970;20.842;2022-09-17T08:46:37;3.13;;;1.00;;
43841;SDS011;29495;49.970;20.842;2022-09-17T09:00:08;2.22;;;0.60;;
43841;SDS011;29495;49.970;20.842;2022-09-17T09:02:45;0.77;;;0.57;;
43841;SDS011;29495;49.970;20.842;2022-09-17T09:05:42;2.40;;;0.52;;
43841;SDS011;29495;49.970;20.842;2022-09-17T09:08:19;1.88;;;0.73;;
43841;SDS011;29495;49.970;20.842;2022-09-17T09:10:50;3.40;;;0.95;;
43841;SDS011;29495;49.970;20.842;2022-09-17T09:13:20;0.82;;;0.57;;
43841;SDS011;29495;49.970;20.842;2022-09-17T09:16:06;0.82;;;0.43;;
43841;SDS011;29495;49.970;20.842;2022-09-17T09:18:39;1.85;;;0.63;;
43841;SDS011;29495;49.970;20.842;2022-09-17T09:23:55;2.17;;;0.60;;
43841;SDS011;29495;49.970;20.842;2022-09-17T09:26:32;1.58;;;0.60;;
43841;SDS011;29495;49.970;20.842;2022-09-17T09:29:12;0.73;;;0.68;;
43841;SDS011;29495;49.970;20.842;2022-09-17T09:34:37;1.38;;;0.60;;
43841;SDS011;29495;49.970;20.842;2022-09-17T09:37:12;3.10;;;0.77;;
43841;SDS011;29495;49.970;20.842;2022-09-17T09:39:49;1.25;;;0.80;;
43841;SDS011;29495;49.970;20.842;2022-09-17T09:42:30;1.02;;;0.80;;
43841;SDS011;29495;49.970;20.842;2022-09-17T09:44:58;0.52;;;0.50;;
43841;SDS011;29495;49.970;20.842;2022-09-17T09:52:37;1.20;;;1.10;;
43841;SDS011;29495;49.970;20.842;2022-09-17T09:55:40;1.95;;;0.80;;
43841;SDS011;29495;49.970;20.842;2022-09-17T09:58:15;2.50;;;0.93;;
43841;SDS011;29495;49.970;20.842;2022-09-17T10:00:49;0.80;;;0.50;;
43841;SDS011;29495;49.970;20.842;2022-09-17T10:03:28;2.30;;;0.80;;
43841;SDS011;29495;49.970;20.842;2022-09-17T10:06:00;1.30;;;0.70;;
43841;SDS011;29495;49.970;20.842;2022-09-17T10:08:31;2.08;;;1.20;;
43841;SDS011;29495;49.970;20.842;2022-09-17T10:11:03;1.40;;;0.90;;
43841;SDS011;29495;49.970;20.842;2022-09-17T10:13:34;1.60;;;1.20;;
43841;SDS011;29495;49.970;20.842;2022-09-17T10:18:45;0.95;;;0.70;;
43841;SDS011;29495;49.970;20.842;2022-09-17T10:21:20;0.75;;;0.75;;
43841;SDS011;29495;49.970;20.842;2022-09-17T10:23:56;1.60;;;0.90;;
43841;SDS011;29495;49.970;20.842;2022-09-17T10:26:31;1.10;;;1.00;;
43841;SDS011;29495;49.970;20.842;2022-09-17T10:29:21;0.70;;;0.70;;
43841;SDS011;29495;49.970;20.842;2022-09-17T10:31:52;1.10;;;0.52;;
43841;SDS011;29495;49.970;20.842;2022-09-17T10:34:24;0.73;;;0.60;;
43841;SDS011;29495;49.970;20.842;2022-09-17T10:36:55;2.78;;;0.70;;
43841;SDS011;29495;49.970;20.842;2022-09-17T10:44:29;1.33;;;1.08;;
43841;SDS011;29495;49.970;20.842;2022-09-17T10:47:04;0.88;;;0.80;;
43841;SDS011;29495;49.970;20.842;2022-09-17T10:49:43;0.98;;;0.85;;
43841;SDS011;29495;49.970;20.842;2022-09-17T10:58:01;1.38;;;0.95;;
43841;SDS011;29495;49.970;20.842;2022-09-17T11:11:50;1.10;;;0.90;;
43841;SDS011;29495;49.970;20.842;2022-09-17T11:17:57;1.83;;;1.27;;
43841;SDS011;29495;49.970;20.842;2022-09-17T11:26:58;1.50;;;0.98;;
43841;SDS011;29495;49.970;20.842;2022-09-17T11:42:06;1.13;;;1.02;;
43841;SDS011;29495;49.970;20.842;2022-09-17T11:45:21;1.35;;;1.08;;
43841;SDS011;29495;49.970;20.842;2022-09-17T11:48:18;1.00;;;0.70;;
43841;SDS011;29495;49.970;20.842;2022-09-17T11:51:26;1.30;;;0.98;;
43841;SDS011;29495;49.970;20.842;2022-09-17T11:57:19;1.58;;;1.10;;
43841;SDS011;29495;49.970;20.842;2022-09-17T11:59:51;1.73;;;1.00;;
43841;SDS011;29495;49.970;20.842;2022-09-17T12:02:25;2.08;;;0.80;;
43841;SDS011;29495;49.970;20.842;2022-09-17T12:05:01;2.05;;;0.82;;
43841;SDS011;29495;49.970;20.842;2022-09-17T12:07:42;1.10;;;0.93;;
43841;SDS011;29495;49.970;20.842;2022-09-17T12:13:02;2.40;;;0.80;;
43841;SDS011;29495;49.970;20.842;2022-09-17T12:15:49;0.75;;;0.70;;
43841;SDS011;29495;49.970;20.842;2022-09-17T12:21:07;1.00;;;0.70;;
43841;SDS011;29495;49.970;20.842;2022-09-17T12:23:39;1.05;;;0.80;;
43841;SDS011;29495;49.970;20.842;2022-09-17T12:26:33;3.38;;;1.02;;
43841;SDS011;29495;49.970;20.842;2022-09-17T12:40:58;2.08;;;1.17;;
43841;SDS011;29495;49.970;20.842;2022-09-17T12:49:04;0.85;;;0.57;;
43841;SDS011;29495;49.970;20.842;2022-09-17T13:00:03;2.00;;;0.70;;
43841;SDS011;29495;49.970;20.842;2022-09-17T13:02:32;2.08;;;0.85;;
43841;SDS011;29495;49.970;20.842;2022-09-17T13:07:56;0.70;;;0.70;;
43841;SDS011;29495;49.970;20.842;2022-09-17T13:21:16;3.15;;;0.90;;
43841;SDS011;29495;49.970;20.842;2022-09-17T13:23:50;1.23;;;0.80;;
43841;SDS011;29495;49.970;20.842;2022-09-17T13:26:18;3.08;;;0.88;;
43841;SDS011;29495;49.970;20.842;2022-09-17T13:28:47;1.10;;;0.90;;
43841;SDS011;29495;49.970;20.842;2022-09-17T13:31:19;1.20;;;0.80;;
43841;SDS011;29495;49.970;20.842;2022-09-17T13:34:11;1.10;;;0.75;;
43841;SDS011;29495;49.970;20.842;2022-09-17T13:36:59;1.42;;;1.02;;
43841;SDS011;29495;49.970;20.842;2022-09-17T13:42:27;3.78;;;0.98;;
43841;SDS011;29495;49.970;20.842;2022-09-17T13:45:05;1.92;;;1.02;;
43841;SDS011;29495;49.970;20.842;2022-09-17T13:47:53;1.23;;;0.90;;
43841;SDS011;29495;49.970;20.842;2022-09-17T13:50:24;2.00;;;1.35;;
43841;SDS011;29495;49.970;20.842;2022-09-17T13:52:57;1.83;;;1.10;;
43841;SDS011;29495;49.970;20.842;2022-09-17T13:55:35;1.38;;;0.98;;
43841;SDS011;29495;49.970;20.842;2022-09-17T13:58:02;1.63;;;0.93;;
43841;SDS011;29495;49.970;20.842;2022-09-17T14:00:54;1.35;;;0.80;;
43841;SDS011;29495;49.970;20.842;2022-09-17T14:13:51;2.55;;;1.55;;
43841;SDS011;29495;49.970;20.842;2022-09-17T14:21:41;2.03;;;1.73;;
43841;SDS011;29495;49.970;20.842;2022-09-17T14:24:19;1.63;;;1.13;;
43841;SDS011;29495;49.970;20.842;2022-09-17T14:31:57;3.13;;;1.45;;
43841;SDS011;29495;49.970;20.842;2022-09-17T14:34:23;2.45;;;1.45;;
43841;SDS011;29495;49.970;20.842;2022-09-17T14:36:50;3.58;;;1.73;;
43841;SDS011;29495;49.970;20.842;2022-09-17T14:39:22;3.67;;;1.77;;
43841;SDS011;29495;49.970;20.842;2022-09-17T14:41:53;2.15;;;1.48;;
43841;SDS011;29495;49.970;20.842;2022-09-17T14:44:21;2.45;;;1.05;;
43841;SDS011;29495;49.970;20.842;2022-09-17T14:46:54;10.70;;;1.80;;
43841;SDS011;29495;49.970;20.842;2022-09-17T14:49:25;1.40;;;1.30;;
43841;SDS011;29495;49.970;20.842;2022-09-17T14:51:56;1.98;;;1.30;;
43841;SDS011;29495;49.970;20.842;2022-09-17T15:04:52;3.15;;;1.63;;
43841;SDS011;29495;49.970;20.842;2022-09-17T15:07:19;2.97;;;1.65;;
43841;SDS011;29495;49.970;20.842;2022-09-17T15:09:46;1.98;;;1.42;;
43841;SDS011;29495;49.970;20.842;2022-09-17T15:12:14;1.60;;;1.13;;
43841;SDS011;29495;49.970;20.842;2022-09-17T15:14:44;2.42;;;1.85;;
43841;SDS011;29495;49.970;20.842;2022-09-17T15:17:12;2.75;;;1.90;;
43841;SDS011;29495;49.970;20.842;2022-09-17T15:19:43;2.20;;;1.75;;
43841;SDS011;29495;49.970;20.842;2022-09-17T15:22:15;2.60;;;1.67;;
43841;SDS011;29495;49.970;20.842;2022-09-17T15:27:30;1.25;;;1.00;;
43841;SDS011;29495;49.970;20.842;2022-09-17T15:32:41;1.60;;;1.30;;
43841;SDS011;29495;49.970;20.842;2022-09-17T15:37:50;3.58;;;1.90;;
43841;SDS011;29495;49.970;20.842;2022-09-17T15:42:50;1.83;;;1.60;;
43841;SDS011;29495;49.970;20.842;2022-09-17T15:45:18;2.72;;;1.38;;
43841;SDS011;29495;49.970;20.842;2022-09-17T15:47:56;2.13;;;1.90;;
43841;SDS011;29495;49.970;20.842;2022-09-17T15:55:35;1.33;;;1.20;;
43841;SDS011;29495;49.970;20.842;2022-09-17T15:58:20;1.63;;;1.27;;
43841;SDS011;29495;49.970;20.842;2022-09-17T16:06:57;1.95;;;1.30;;
43841;SDS011;29495;49.970;20.842;2022-09-17T16:09:47;1.55;;;1.20;;
43841;SDS011;29495;49.970;20.842;2022-09-17T16:12:18;2.08;;;1.40;;
43841;SDS011;29495;49.970;20.842;2022-09-17T16:14:52;1.55;;;1.13;;
43841;SDS011;29495;49.970;20.842;2022-09-17T16:17:20;2.30;;;1.23;;
43841;SDS011;29495;49.970;20.842;2022-09-17T16:19:49;1.50;;;1.20;;
43841;SDS011;29495;49.970;20.842;2022-09-17T16:22:16;1.20;;;1.10;;
43841;SDS011;29495;49.970;20.842;2022-09-17T16:24:41;1.98;;;1.45;;
43841;SDS011;29495;49.970;20.842;2022-09-17T16:27:09;2.28;;;1.70;;
43841;SDS011;29495;49.970;20.842;2022-09-17T16:29:41;1.92;;;1.23;;
43841;SDS011;29495;49.970;20.842;2022-09-17T16:32:09;2.17;;;1.60;;
43841;SDS011;29495;49.970;20.842;2022-09-17T16:34:35;2.20;;;1.58;;
43841;SDS011;29495;49.970;20.842;2022-09-17T16:37:01;2.20;;;1.20;;
43841;SDS011;29495;49.970;20.842;2022-09-17T16:39:27;2.60;;;1.60;;
43841;SDS011;29495;49.970;20.842;2022-09-17T16:41:53;2.97;;;2.17;;
43841;SDS011;29495;49.970;20.842;2022-09-17T16:44:19;2.67;;;1.70;;
43841;SDS011;29495;49.970;20.842;2022-09-17T16:46:45;2.25;;;1.75;;
43841;SDS011;29495;49.970;20.842;2022-09-17T16:49:13;2.00;;;1.80;;
43841;SDS011;29495;49.970;20.842;2022-09-17T16:51:39;2.80;;;1.75;;
43841;SDS011;29495;49.970;20.842;2022-09-17T16:54:05;3.15;;;2.10;;
43841;SDS011;29495;49.970;20.842;2022-09-17T16:56:31;3.80;;;2.08;;
43841;SDS011;29495;49.970;20.842;2022-09-17T16:58:57;2.30;;;1.80;;
43841;SDS011;29495;49.970;20.842;2022-09-17T17:01:23;2.63;;;2.35;;
43841;SDS011;29495;49.970;20.842;2022-09-17T17:03:49;3.17;;;2.08;;
43841;SDS011;29495;49.970;20.842;2022-09-17T17:06:17;2.92;;;2.38;;
43841;SDS011;29495;49.970;20.842;2022-09-17T17:08:44;3.85;;;2.17;;
43841;SDS011;29495;49.970;20.842;2022-09-17T17:11:10;3.17;;;2.13;;
43841;SDS011;29495;49.970;20.842;2022-09-17T17:13:37;3.10;;;2.22;;
43841;SDS011;29495;49.970;20.842;2022-09-17T17:16:07;3.38;;;2.10;;
43841;SDS011;29495;49.970;20.842;2022-09-17T17:18:34;2.13;;;1.90;;
43841;SDS011;29495;49.970;20.842;2022-09-17T17:21:06;2.28;;;1.80;;
43841;SDS011;29495;49.970;20.842;2022-09-17T17:23:34;2.55;;;1.98;;
43841;SDS011;29495;49.970;20.842;2022-09-17T17:26:00;2.88;;;1.80;;
43841;SDS011;29495;49.970;20.842;2022-09-17T17:28:31;3.30;;;1.70;;
43841;SDS011;29495;49.970;20.842;2022-09-17T17:30:59;2.17;;;1.98;;
43841;SDS011;29495;49.970;20.842;2022-09-17T17:33:26;2.08;;;1.63;;
43841;SDS011;29495;49.970;20.842;2022-09-17T17:35:52;3.22;;;2.50;;
43841;SDS011;29495;49.970;20.842;2022-09-17T17:38:18;3.03;;;2.40;;
43841;SDS011;29495;49.970;20.842;2022-09-17T17:40:44;3.17;;;2.28;;
43841;SDS011;29495;49.970;20.842;2022-09-17T17:43:11;5.97;;;2.67;;
43841;SDS011;29495;49.970;20.842;2022-09-17T17:45:38;4.32;;;2.67;;
43841;SDS011;29495;49.970;20.842;2022-09-17T17:48:04;5.95;;;2.65;;
43841;SDS011;29495;49.970;20.842;2022-09-17T17:50:31;3.75;;;2.42;;
43841;SDS011;29495;49.970;20.842;2022-09-17T17:52:58;2.33;;;2.03;;
43841;SDS011;29495;49.970;20.842;2022-09-17T17:55:24;4.25;;;2.47;;
43841;SDS011;29495;49.970;20.842;2022-09-17T17:57:55;2.47;;;2.10;;
43841;SDS011;29495;49.970;20.842;2022-09-17T18:00:22;3.35;;;2.40;;
43841;SDS011;29495;49.970;20.842;2022-09-17T18:02:49;2.80;;;2.00;;
43841;SDS011;29495;49.970;20.842;2022-09-17T18:05:15;3.60;;;2.72;;
43841;SDS011;29495;49.970;20.842;2022-09-17T18:07:42;3.42;;;2.65;;
43841;SDS011;29495;49.970;20.842;2022-09-17T18:10:08;2.92;;;2.03;;
43841;SDS011;29495;49.970;20.842;2022-09-17T18:12:34;3.72;;;2.22;;
43841;SDS011;29495;49.970;20.842;2022-09-17T18:15:01;2.55;;;2.10;;
43841;SDS011;29495;49.970;20.842;2022-09-17T18:17:29;2.92;;;2.10;;
43841;SDS011;29495;49.970;20.842;2022-09-17T18:19:55;2.80;;;2.15;;
43841;SDS011;29495;49.970;20.842;2022-09-17T18:22:23;5.32;;;2.80;;
43841;SDS011;29495;49.970;20.842;2022-09-17T18:24:49;3.67;;;2.53;;
43841;SDS011;29495;49.970;20.842;2022-09-17T18:27:15;2.90;;;2.25;;
43841;SDS011;29495;49.970;20.842;2022-09-17T18:29:41;3.85;;;2.58;;
43841;SDS011;29495;49.970;20.842;2022-09-17T18:32:07;2.67;;;2.28;;
43841;SDS011;29495;49.970;20.842;2022-09-17T18:34:33;3.53;;;2.35;;
43841;SDS011;29495;49.970;20.842;2022-09-17T18:37:00;3.78;;;2.80;;
43841;SDS011;29495;49.970;20.842;2022-09-17T18:39:27;7.45;;;3.17;;
43841;SDS011;29495;49.970;20.842;2022-09-17T18:41:53;3.35;;;2.40;;
43841;SDS011;29495;49.970;20.842;2022-09-17T18:44:19;3.92;;;2.83;;
43841;SDS011;29495;49.970;20.842;2022-09-17T18:46:46;4.40;;;2.88;;
43841;SDS011;29495;49.970;20.842;2022-09-17T18:49:13;4.38;;;3.10;;
43841;SDS011;29495;49.970;20.842;2022-09-17T18:51:40;3.17;;;2.60;;
43841;SDS011;29495;49.970;20.842;2022-09-17T18:54:07;3.97;;;2.63;;